createdAt,value
2022-12-06T00:04:16.244Z,4.20
2022-12-06T00:08:30.617Z,4.20
2022-12-06T00:12:44.598Z,4.20
2022-12-06T00:17:00.113Z,4.20
2022-12-06T00:21:15.762Z,4.20
2022-12-06T00:25:29.740Z,4.20
2022-12-06T00:29:43.450Z,4.20
2022-12-06T00:33:58.898Z,4.20
2022-12-06T00:38:12.695Z,4.20
2022-12-06T00:42:26.500Z,4.20
2022-12-06T00:46:41.018Z,4.10
2022-12-06T00:50:56.626Z,4.10
2022-12-06T00:55:10.598Z,4.10
2022-12-06T00:59:24.407Z,4.10
2022-12-06T01:03:38.431Z,4.10
2022-12-06T01:07:54.180Z,4.20
2022-12-06T01:12:08.390Z,4.20
2022-12-06T01:16:27.449Z,4.20
2022-12-06T01:20:41.328Z,4.20
2022-12-06T01:24:59.064Z,4.10
2022-12-06T01:29:12.960Z,4.10
2022-12-06T01:33:26.904Z,4.10
2022-12-06T01:37:41.388Z,4.10
2022-12-06T01:41:56.935Z,4.10
2022-12-06T01:46:22.263Z,4.10
2022-12-06T01:50:39.563Z,4.10
2022-12-06T01:54:54.489Z,4.10
2022-12-06T01:59:11.649Z,4.00
2022-12-06T02:03:28.765Z,4.10
2022-12-06T02:07:43.910Z,4.10
2022-12-06T02:11:57.935Z,4.10
2022-12-06T02:16:36.563Z,4.10
2022-12-06T02:20:57.559Z,4.10
2022-12-06T02:25:31.509Z,4.10
2022-12-06T02:30:09.021Z,4.10
2022-12-06T02:34:31.245Z,4.10
2022-12-06T02:38:48.980Z,4.10
2022-12-06T02:43:07.676Z,4.10
2022-12-06T02:47:25.408Z,4.10
2022-12-06T02:51:41.513Z,4.10
2022-12-06T02:55:56.125Z,4.10
2022-12-06T03:00:33.402Z,4.10
2022-12-06T03:04:52.819Z,4.00
2022-12-06T03:09:19.252Z,4.10
2022-12-06T03:13:36.854Z,4.00
2022-12-06T03:17:55.116Z,4.00
2022-12-06T03:22:13.390Z,4.00
2022-12-06T03:26:32.367Z,4.00
2022-12-06T03:30:49.088Z,4.00
2022-12-06T03:35:08.396Z,4.00
2022-12-06T03:39:29.070Z,4.00
2022-12-06T03:43:44.789Z,4.00
2022-12-06T03:48:04.148Z,3.90
2022-12-06T03:52:17.815Z,3.90
2022-12-06T03:56:32.264Z,3.90
2022-12-06T04:00:48.040Z,3.80
2022-12-06T04:05:01.975Z,3.80
2022-12-06T04:09:34.076Z,3.80
2022-12-06T04:13:47.733Z,3.80
2022-12-06T04:18:14.578Z,3.80
2022-12-06T04:22:45.578Z,3.70
2022-12-06T04:27:19.985Z,3.70
2022-12-06T04:31:51.464Z,3.60
2022-12-06T04:36:24.849Z,3.60
2022-12-06T04:40:38.721Z,3.50
2022-12-06T04:44:52.536Z,3.50
2022-12-06T04:49:06.327Z,3.50
2022-12-06T04:53:21.960Z,3.40
2022-12-06T04:57:35.822Z,3.40
2022-12-06T05:01:50.181Z,3.40
2022-12-06T05:06:04.168Z,3.40
2022-12-06T05:10:19.383Z,3.40
2022-12-06T05:14:33.329Z,3.40
2022-12-06T05:18:47.136Z,3.40
2022-12-06T05:23:00.935Z,3.40
2022-12-06T05:27:16.182Z,3.40
2022-12-06T05:31:30.053Z,3.40
2022-12-06T05:35:43.980Z,3.40
2022-12-06T05:39:58.034Z,3.40
2022-12-06T05:44:13.598Z,3.40
2022-12-06T05:48:27.375Z,3.40
2022-12-06T05:52:41.217Z,3.40
2022-12-06T05:56:55.565Z,3.40
2022-12-06T06:01:11.156Z,3.40
2022-12-06T06:05:25.132Z,3.40
2022-12-06T06:09:38.839Z,3.40
2022-12-06T06:13:54.462Z,3.30
2022-12-06T06:18:09.726Z,3.40
2022-12-06T06:22:24.575Z,3.40
2022-12-06T06:26:38.437Z,3.30
2022-12-06T06:30:52.761Z,3.30
2022-12-06T06:35:08.982Z,3.30
2022-12-06T06:39:22.873Z,3.30
2022-12-06T06:43:36.724Z,3.30
2022-12-06T06:47:50.561Z,3.30
2022-12-06T06:52:05.836Z,3.30
2022-12-06T06:56:20.258Z,3.30
2022-12-06T07:00:34.476Z,3.30
2022-12-06T07:04:49.877Z,3.20
2022-12-06T07:09:05.426Z,3.30
2022-12-06T07:13:20.850Z,3.30
2022-12-06T07:17:35.247Z,3.20
2022-12-06T07:21:49.081Z,3.30
2022-12-06T07:26:06.240Z,3.30
2022-12-06T07:30:25.749Z,3.20
2022-12-06T07:34:41.146Z,3.30
2022-12-06T07:38:57.364Z,3.30
2022-12-06T07:43:29.817Z,3.30
2022-12-06T07:47:45.186Z,3.30
2022-12-06T07:51:59.573Z,3.30
2022-12-06T07:56:13.444Z,3.30
2022-12-06T08:00:28.652Z,3.30
2022-12-06T08:04:42.694Z,3.40
2022-12-06T08:08:56.782Z,3.40
2022-12-06T08:13:10.569Z,3.40
2022-12-06T08:17:25.854Z,3.40
2022-12-06T08:21:39.630Z,3.40
2022-12-06T08:25:58.805Z,3.40
2022-12-06T08:30:12.885Z,3.40
2022-12-06T08:34:28.136Z,3.40
2022-12-06T08:38:44.113Z,3.40
2022-12-06T08:43:12.005Z,3.40
2022-12-06T08:47:47.980Z,3.40
2022-12-06T08:52:24.025Z,3.40
2022-12-06T08:56:57.967Z,3.40
2022-12-06T09:01:37.718Z,3.50
2022-12-06T09:06:15.966Z,3.50
2022-12-06T09:10:51.003Z,3.50
2022-12-06T09:15:25.990Z,3.40
2022-12-06T09:20:05.476Z,3.40
2022-12-06T09:24:39.929Z,3.40
2022-12-06T09:29:09.194Z,3.40
2022-12-06T09:33:42.994Z,3.40
2022-12-06T09:38:15.940Z,3.30
2022-12-06T09:43:09.945Z,3.40
2022-12-06T09:47:55.951Z,3.40
2022-12-06T09:52:52.983Z,3.40
2022-12-06T09:57:33.014Z,3.40
2022-12-06T10:02:11.125Z,3.40
2022-12-06T10:06:57.065Z,3.40
2022-12-06T10:11:44.923Z,3.50
2022-12-06T10:16:28.942Z,3.50
2022-12-06T10:21:07.895Z,3.60
2022-12-06T10:25:56.161Z,3.60
2022-12-06T10:30:29.892Z,3.60
2022-12-06T10:35:09.883Z,3.60
2022-12-06T10:39:54.904Z,3.60
2022-12-06T10:44:38.951Z,3.60
2022-12-06T10:49:18.859Z,3.50
2022-12-06T10:53:52.065Z,3.50
2022-12-06T10:58:35.929Z,3.50
2022-12-06T11:03:18.853Z,3.50
2022-12-06T11:07:55.950Z,3.50
2022-12-06T11:12:37.894Z,3.50
2022-12-06T11:17:06.961Z,3.50
2022-12-06T11:21:46.875Z,3.50
2022-12-06T11:26:23.002Z,3.50
2022-12-06T11:30:56.856Z,3.50
2022-12-06T11:35:34.875Z,3.50
2022-12-06T11:40:21.841Z,3.50
2022-12-06T11:44:59.851Z,3.40
2022-12-06T11:49:43.915Z,3.40
2022-12-06T11:54:28.811Z,3.40
2022-12-06T11:59:14.813Z,3.40
2022-12-06T12:03:44.035Z,3.30
2022-12-06T12:08:21.042Z,3.30
2022-12-06T12:13:14.828Z,3.30
2022-12-06T12:17:50.892Z,3.30
2022-12-06T12:22:33.073Z,3.20
2022-12-06T12:27:06.817Z,3.20
2022-12-06T12:31:40.880Z,3.20
2022-12-06T12:36:30.816Z,3.20
2022-12-06T12:41:01.402Z,3.20
2022-12-06T12:45:34.850Z,3.20
2022-12-06T12:50:10.834Z,3.10
2022-12-06T12:54:47.787Z,3.10
2022-12-06T12:59:23.842Z,3.10
2022-12-06T13:03:58.868Z,3.10
2022-12-06T13:08:37.800Z,3.10
2022-12-06T13:13:15.869Z,3.10
2022-12-06T13:17:56.461Z,3.10
2022-12-06T13:22:35.786Z,3.00
2022-12-06T13:27:10.782Z,3.00
2022-12-06T13:31:43.908Z,3.00
2022-12-06T13:36:20.738Z,3.00
2022-12-06T13:41:04.794Z,2.90
2022-12-06T13:45:48.824Z,3.00
2022-12-06T13:51:00.744Z,2.90
2022-12-06T13:56:08.766Z,2.90
2022-12-06T14:01:01.922Z,2.90
2022-12-06T14:06:13.870Z,2.90
2022-12-06T14:10:48.990Z,2.80
2022-12-06T14:15:20.481Z,2.90
2022-12-06T14:19:56.865Z,2.80
2022-12-06T14:24:38.719Z,2.80
2022-12-06T14:29:13.698Z,2.80
2022-12-06T14:33:48.688Z,2.80
2022-12-06T14:38:36.760Z,2.80
2022-12-06T14:43:12.783Z,2.80
2022-12-06T14:47:48.705Z,2.80
2022-12-06T14:52:23.583Z,2.80
2022-12-06T14:56:58.716Z,2.80
2022-12-06T15:01:35.732Z,2.70
2022-12-06T15:06:25.684Z,2.70
2022-12-06T15:10:59.027Z,2.70
2022-12-06T15:15:52.372Z,2.70
2022-12-06T15:20:28.826Z,2.70
2022-12-06T15:25:06.800Z,2.70
2022-12-06T15:29:41.965Z,2.70
2022-12-06T15:34:15.715Z,2.70
2022-12-06T15:38:48.697Z,2.60
2022-12-06T15:43:40.656Z,2.60
2022-12-06T15:48:17.680Z,2.60
2022-12-06T15:52:51.891Z,2.60
2022-12-06T15:57:24.677Z,2.60
2022-12-06T16:02:00.698Z,2.60
2022-12-06T16:06:36.840Z,2.60
2022-12-06T16:11:12.032Z,2.60
2022-12-06T16:15:45.675Z,2.50
2022-12-06T16:20:38.639Z,2.60
2022-12-06T16:25:07.444Z,2.60
2022-12-06T16:29:41.643Z,2.60
2022-12-06T16:34:15.772Z,2.60
2022-12-06T16:38:42.937Z,2.60
2022-12-06T16:43:18.734Z,2.60
2022-12-06T16:47:52.606Z,2.60
2022-12-06T16:52:25.610Z,2.60
2022-12-06T16:56:53.984Z,2.60
2022-12-06T17:01:31.564Z,2.60
2022-12-06T17:06:05.632Z,2.60
2022-12-06T17:10:40.601Z,2.60
2022-12-06T17:15:14.606Z,2.60
2022-12-06T17:19:50.674Z,2.60
2022-12-06T17:24:25.562Z,2.50
2022-12-06T17:28:58.561Z,2.50
2022-12-06T17:33:32.593Z,2.50
2022-12-06T17:38:07.566Z,2.50
2022-12-06T17:43:02.557Z,2.50
2022-12-06T17:47:36.630Z,2.50
2022-12-06T17:52:10.562Z,2.50
2022-12-06T17:56:46.571Z,2.60
2022-12-06T18:01:22.623Z,2.60
2022-12-06T18:05:57.763Z,2.60
2022-12-06T18:10:31.678Z,2.60
2022-12-06T18:15:00.272Z,2.70
2022-12-06T18:19:36.572Z,2.70
2022-12-06T18:24:31.989Z,2.70
2022-12-06T18:29:20.558Z,2.70
2022-12-06T18:33:55.583Z,2.70
2022-12-06T18:38:29.514Z,2.80
2022-12-06T18:42:56.352Z,2.80
2022-12-06T18:47:30.536Z,2.80
2022-12-06T18:52:05.515Z,2.80
2022-12-06T18:56:41.506Z,2.80
2022-12-06T19:01:22.961Z,2.90
2022-12-06T19:06:03.305Z,2.90
2022-12-06T19:10:41.538Z,2.90
2022-12-06T19:15:18.114Z,2.90
2022-12-06T19:19:56.275Z,2.90
2022-12-06T19:24:30.457Z,2.90
2022-12-06T19:29:05.529Z,2.90
2022-12-06T19:33:39.476Z,2.90
2022-12-06T19:38:12.512Z,3.00
2022-12-06T19:43:18.441Z,3.00
2022-12-06T19:47:54.510Z,3.00
2022-12-06T19:52:31.047Z,3.00
2022-12-06T19:57:05.450Z,3.00
2022-12-06T20:01:40.501Z,3.00
2022-12-06T20:06:20.457Z,3.00
2022-12-06T20:10:54.450Z,2.90
2022-12-06T20:15:21.279Z,3.00
2022-12-06T20:19:55.445Z,3.00
2022-12-06T20:24:30.422Z,3.00
2022-12-06T20:29:04.488Z,3.00
2022-12-06T20:33:37.455Z,3.00
2022-12-06T20:38:11.439Z,3.00
2022-12-06T20:42:46.417Z,3.00
2022-12-06T20:47:20.414Z,3.00
2022-12-06T20:51:53.928Z,3.00
2022-12-06T20:56:29.415Z,3.00
2022-12-06T21:01:00.532Z,3.10
2022-12-06T21:05:34.422Z,3.00
2022-12-06T21:10:07.422Z,3.00
2022-12-06T21:14:41.518Z,3.00
2022-12-06T21:19:19.599Z,3.00
2022-12-06T21:23:53.385Z,3.00
2022-12-06T21:28:27.374Z,3.00
2022-12-06T21:33:05.687Z,3.00
2022-12-06T21:37:41.751Z,2.90
2022-12-06T21:42:17.407Z,3.00
2022-12-06T21:46:51.400Z,3.00
2022-12-06T21:51:26.394Z,3.00
2022-12-06T21:56:01.583Z,3.00
2022-12-06T22:05:00.787Z,3.00
2022-12-06T22:09:14.475Z,3.00
2022-12-06T22:13:30.314Z,3.00
2022-12-06T22:17:44.490Z,3.10
2022-12-06T22:21:58.667Z,3.10
2022-12-06T22:26:16.310Z,3.10
2022-12-06T22:30:31.641Z,3.10
2022-12-06T22:34:45.569Z,3.10
2022-12-06T22:39:14.337Z,3.10
2022-12-06T22:43:48.342Z,3.10
2022-12-06T22:48:23.325Z,3.10
2022-12-06T22:52:57.412Z,3.10
2022-12-06T22:57:24.545Z,3.10
2022-12-06T23:01:58.460Z,3.10
2022-12-06T23:06:35.366Z,3.20
2022-12-06T23:11:10.394Z,3.20
2022-12-06T23:15:45.600Z,3.20
2022-12-06T23:20:20.373Z,3.20
2022-12-06T23:24:56.361Z,3.20
2022-12-06T23:29:23.255Z,3.20
2022-12-06T23:33:58.323Z,3.20
2022-12-06T23:38:32.366Z,3.20
2022-12-06T23:43:07.274Z,3.20
2022-12-06T23:47:43.648Z,3.20
2022-12-06T23:52:17.317Z,3.20
2022-12-06T23:56:51.270Z,3.20
